Aérodrome :
LOGIN :

S'inscrire | Disclaimer

   EN    FR    IT 

 










Légende :    VFR   VFR Marginal   IFR   IFR Intensif   IFR Très Intensif
Visi : 
Plafond : 
>= 8 km
>= 3000ft
5 à 8 km
1000 à 3000 ft
1500m à 5 km
500 à 1000 ft
800 à 1500m
200 à 500 ft
< 800m
< 200 ft
Symboles :   Orages  Brouillard  Fortes neiges  Fortes précipitations  Vent > 20 kt
SIGMETs :   Divers  Orages  Givrage  Turbulence  Onde Orograph.  Cendres Volcan.






- Altitude de l'aérodrome : 240 ft
- Code IATA : VLC


LEVC - Valencia Manises

DERNIER METAR :
  • 020530Z 23012KT 9999 FEW030 10/03 Q1010 NOSIG

METARs EXPIRÉS :
  • 020500Z 24014KT 9999 FEW030 10/03 Q1011 NOSIG
  • 020430Z 23011KT 9999 FEW030 10/02 Q1011 NOSIG
  • 012100Z 27008KT CAVOK 14/M01 Q1013 NOSIG
  • 020400Z 22013KT CAVOK 11/02 Q1011 NOSIG
  • 020330Z 23010KT CAVOK 10/02 Q1011 NOSIG
  • 020300Z 23013KT CAVOK 11/01 Q1011 NOSIG
  • 020230Z 24013KT CAVOK 12/02 Q1012 NOSIG
  • 020200Z 25006KT 220V300 CAVOK 10/00 Q1012 NOSIG
  • 020130Z 24009KT CAVOK 12/00 Q1012 NOSIG
  • 020100Z 22005KT CAVOK 12/M00 Q1012 NOSIG

TAF TAF LEVC
Valide du 02 à 00h jusqu'au 03 à 00h UTC


012300Z 0200/0224 25008KT 9999 FEW040 TX20/0214Z TN10/0206Z
BECMG 0208/0211 25015KT
TEMPO 0211/0218 26020G35KT
PROB40
TEMPO 0218/0224 26015G25KT



MET'MAP, la Météo Aéronautique d'un coup d'oeil ! - Copyright ORBIFLY Décembre 2007 - Disclaimer

ORBIFLY MET'MAP TEAM :

Programmation & Développement : Alexandra Zaïnal
Sur une idée originale de : Baudouin d'Aumeries
Soutien technique & logistique : Manuel Goepfert
Assistance : Marc-Olivier Méhu




SOURCES & CREDITS :

   NOAA